sensor_id;sensor_type;location;lat;lon;timestamp;temperature;humidity
71039;SHT30;58692;43.212;27.908;2023-04-03T00:01:16;11.24;78.84
71039;SHT30;58692;43.212;27.908;2023-04-03T00:03:42;11.30;78.77
71039;SHT30;58692;43.212;27.908;2023-04-03T00:06:09;11.30;78.61
71039;SHT30;58692;43.212;27.908;2023-04-03T00:08:36;11.34;78.55
71039;SHT30;58692;43.212;27.908;2023-04-03T00:11:02;11.14;78.77
71039;SHT30;58692;43.212;27.908;2023-04-03T00:13:27;11.18;78.59
71039;SHT30;58692;43.212;27.908;2023-04-03T00:15:53;11.00;78.54
71039;SHT30;58692;43.212;27.908;2023-04-03T00:18:19;10.89;78.53
71039;SHT30;58692;43.212;27.908;2023-04-03T00:20:45;10.92;78.44
71039;SHT30;58692;43.212;27.908;2023-04-03T00:23:10;10.93;78.39
71039;SHT30;58692;43.212;27.908;2023-04-03T00:25:36;10.89;78.55
71039;SHT30;58692;43.212;27.908;2023-04-03T00:28:03;10.96;78.37
71039;SHT30;58692;43.212;27.908;2023-04-03T00:30:29;10.87;78.62
71039;SHT30;58692;43.212;27.908;2023-04-03T00:32:54;10.89;78.58
71039;SHT30;58692;43.212;27.908;2023-04-03T00:35:21;10.93;78.30
71039;SHT30;58692;43.212;27.908;2023-04-03T00:37:47;10.87;78.18
71039;SHT30;58692;43.212;27.908;2023-04-03T00:40:14;10.76;78.35
71039;SHT30;58692;43.212;27.908;2023-04-03T00:42:42;10.90;78.17
71039;SHT30;58692;43.212;27.908;2023-04-03T00:45:31;10.77;78.61
71039;SHT30;58692;43.212;27.908;2023-04-03T00:47:57;10.69;78.80
71039;SHT30;58692;43.212;27.908;2023-04-03T00:50:26;10.73;78.83
71039;SHT30;58692;43.212;27.908;2023-04-03T00:52:53;10.77;78.67
71039;SHT30;58692;43.212;27.908;2023-04-03T00:55:19;10.62;79.01
71039;SHT30;58692;43.212;27.908;2023-04-03T00:57:45;10.69;78.91
71039;SHT30;58692;43.212;27.908;2023-04-03T01:00:15;10.70;78.96
71039;SHT30;58692;43.212;27.908;2023-04-03T01:02:41;10.67;79.13
71039;SHT30;58692;43.212;27.908;2023-04-03T01:05:08;10.65;79.14
71039;SHT30;58692;43.212;27.908;2023-04-03T01:07:33;10.60;79.35
71039;SHT30;58692;43.212;27.908;2023-04-03T01:10:04;10.59;79.34
71039;SHT30;58692;43.212;27.908;2023-04-03T01:12:35;10.65;79.14
71039;SHT30;58692;43.212;27.908;2023-04-03T01:15:08;10.63;79.01
71039;SHT30;58692;43.212;27.908;2023-04-03T01:17:40;10.60;78.79
71039;SHT30;58692;43.212;27.908;2023-04-03T01:25:33;10.52;78.72
71039;SHT30;58692;43.212;27.908;2023-04-03T01:27:59;10.53;78.68
71039;SHT30;58692;43.212;27.908;2023-04-03T01:30:32;10.49;78.56
71039;SHT30;58692;43.212;27.908;2023-04-03T01:32:57;10.50;78.73
71039;SHT30;58692;43.212;27.908;2023-04-03T01:35:23;10.43;78.79
71039;SHT30;58692;43.212;27.908;2023-04-03T01:37:49;10.41;78.93
71039;SHT30;58692;43.212;27.908;2023-04-03T01:40:14;10.18;79.73
71039;SHT30;58692;43.212;27.908;2023-04-03T01:42:40;10.11;79.95
71039;SHT30;58692;43.212;27.908;2023-04-03T01:45:06;10.11;80.13
71039;SHT30;58692;43.212;27.908;2023-04-03T01:47:31;9.99;80.68
71039;SHT30;58692;43.212;27.908;2023-04-03T01:49:57;10.01;80.81
71039;SHT30;58692;43.212;27.908;2023-04-03T01:52:22;9.98;81.24
71039;SHT30;58692;43.212;27.908;2023-04-03T01:54:48;9.88;81.47
71039;SHT30;58692;43.212;27.908;2023-04-03T01:57:13;9.84;81.71
71039;SHT30;58692;43.212;27.908;2023-04-03T01:59:40;9.87;81.80
71039;SHT30;58692;43.212;27.908;2023-04-03T02:02:06;9.95;81.53
71039;SHT30;58692;43.212;27.908;2023-04-03T02:04:32;9.90;81.41
71039;SHT30;58692;43.212;27.908;2023-04-03T02:06:57;9.94;81.32
71039;SHT30;58692;43.212;27.908;2023-04-03T02:09:23;9.92;81.51
71039;SHT30;58692;43.212;27.908;2023-04-03T02:11:48;9.95;81.49
71039;SHT30;58692;43.212;27.908;2023-04-03T02:14:14;9.98;81.32
71039;SHT30;58692;43.212;27.908;2023-04-03T02:16:40;9.99;81.04
71039;SHT30;58692;43.212;27.908;2023-04-03T02:19:06;10.02;80.92
71039;SHT30;58692;43.212;27.908;2023-04-03T02:21:32;10.05;80.75
71039;SHT30;58692;43.212;27.908;2023-04-03T02:23:57;9.99;80.73
71039;SHT30;58692;43.212;27.908;2023-04-03T02:26:23;9.98;80.77
71039;SHT30;58692;43.212;27.908;2023-04-03T02:28:48;9.97;81.36
71039;SHT30;58692;43.212;27.908;2023-04-03T02:31:14;9.97;81.30
71039;SHT30;58692;43.212;27.908;2023-04-03T02:33:40;9.97;81.62
71039;SHT30;58692;43.212;27.908;2023-04-03T02:36:07;10.02;81.32
71039;SHT30;58692;43.212;27.908;2023-04-03T02:38:33;10.12;81.29
71039;SHT30;58692;43.212;27.908;2023-04-03T02:41:03;10.09;81.44
71039;SHT30;58692;43.212;27.908;2023-04-03T02:43:29;10.12;81.42
71039;SHT30;58692;43.212;27.908;2023-04-03T02:45:55;10.12;81.38
71039;SHT30;58692;43.212;27.908;2023-04-03T02:48:21;10.15;81.25
71039;SHT30;58692;43.212;27.908;2023-04-03T02:50:46;10.18;81.32
71039;SHT30;58692;43.212;27.908;2023-04-03T02:53:12;10.18;81.36
71039;SHT30;58692;43.212;27.908;2023-04-03T02:55:37;10.23;81.05
71039;SHT30;58692;43.212;27.908;2023-04-03T02:58:03;10.26;80.90
71039;SHT30;58692;43.212;27.908;2023-04-03T03:00:29;10.29;80.70
71039;SHT30;58692;43.212;27.908;2023-04-03T03:02:55;10.33;80.26
71039;SHT30;58692;43.212;27.908;2023-04-03T03:05:20;10.29;80.27
71039;SHT30;58692;43.212;27.908;2023-04-03T03:07:46;10.31;80.23
71039;SHT30;58692;43.212;27.908;2023-04-03T03:10:12;10.23;80.13
71039;SHT30;58692;43.212;27.908;2023-04-03T03:12:37;10.22;80.17
71039;SHT30;58692;43.212;27.908;2023-04-03T03:15:03;10.13;80.11
71039;SHT30;58692;43.212;27.908;2023-04-03T03:17:28;10.16;79.93
71039;SHT30;58692;43.212;27.908;2023-04-03T03:19:54;10.06;80.00
71039;SHT30;58692;43.212;27.908;2023-04-03T03:22:19;9.95;80.43
71039;SHT30;58692;43.212;27.908;2023-04-03T03:24:45;9.91;80.65
71039;SHT30;58692;43.212;27.908;2023-04-03T03:27:10;9.88;80.67
71039;SHT30;58692;43.212;27.908;2023-04-03T03:29:37;9.82;81.02
71039;SHT30;58692;43.212;27.908;2023-04-03T03:32:03;9.85;80.98
71039;SHT30;58692;43.212;27.908;2023-04-03T03:34:28;9.85;81.26
71039;SHT30;58692;43.212;27.908;2023-04-03T03:36:54;9.73;81.60
71039;SHT30;58692;43.212;27.908;2023-04-03T03:39:20;9.52;82.22
71039;SHT30;58692;43.212;27.908;2023-04-03T03:41:46;9.44;82.88
71039;SHT30;58692;43.212;27.908;2023-04-03T03:44:11;9.39;83.18
71039;SHT30;58692;43.212;27.908;2023-04-03T03:46:37;9.43;82.90
71039;SHT30;58692;43.212;27.908;2023-04-03T03:49:02;9.31;82.89
71039;SHT30;58692;43.212;27.908;2023-04-03T03:51:28;9.30;82.85
71039;SHT30;58692;43.212;27.908;2023-04-03T03:53:53;9.27;82.89
71039;SHT30;58692;43.212;27.908;2023-04-03T03:56:20;9.23;82.91
71039;SHT30;58692;43.212;27.908;2023-04-03T03:58:46;9.17;83.21
71039;SHT30;58692;43.212;27.908;2023-04-03T04:01:11;9.26;82.88
71039;SHT30;58692;43.212;27.908;2023-04-03T04:03:37;9.24;82.93
71039;SHT30;58692;43.212;27.908;2023-04-03T04:06:02;9.36;82.52
71039;SHT30;58692;43.212;27.908;2023-04-03T04:08:28;9.41;82.24
71039;SHT30;58692;43.212;27.908;2023-04-03T04:10:53;9.43;81.71
71039;SHT30;58692;43.212;27.908;2023-04-03T04:13:19;9.62;80.96
71039;SHT30;58692;43.212;27.908;2023-04-03T04:15:45;9.85;80.13
71039;SHT30;58692;43.212;27.908;2023-04-03T04:18:10;10.03;79.40
71039;SHT30;58692;43.212;27.908;2023-04-03T04:20:36;10.11;78.83
71039;SHT30;58692;43.212;27.908;2023-04-03T04:23:01;10.15;78.51
71039;SHT30;58692;43.212;27.908;2023-04-03T04:25:27;10.29;77.90
71039;SHT30;58692;43.212;27.908;2023-04-03T04:27:52;10.56;77.14
71039;SHT30;58692;43.212;27.908;2023-04-03T04:30:18;10.79;76.22
71039;SHT30;58692;43.212;27.908;2023-04-03T04:32:43;10.89;75.73
71039;SHT30;58692;43.212;27.908;2023-04-03T04:35:09;10.92;75.49
71039;SHT30;58692;43.212;27.908;2023-04-03T04:37:34;11.17;74.89
71039;SHT30;58692;43.212;27.908;2023-04-03T04:40:00;11.44;73.59
71039;SHT30;58692;43.212;27.908;2023-04-03T04:42:26;11.55;73.18
71039;SHT30;58692;43.212;27.908;2023-04-03T04:44:51;11.61;72.99
71039;SHT30;58692;43.212;27.908;2023-04-03T04:47:17;11.55;73.04
71039;SHT30;58692;43.212;27.908;2023-04-03T04:49:42;11.78;72.57
71039;SHT30;58692;43.212;27.908;2023-04-03T04:52:07;11.83;71.71
71039;SHT30;58692;43.212;27.908;2023-04-03T04:54:33;12.02;71.31
71039;SHT30;58692;43.212;27.908;2023-04-03T04:56:59;11.93;71.11
71039;SHT30;58692;43.212;27.908;2023-04-03T04:59:24;12.05;70.94
71039;SHT30;58692;43.212;27.908;2023-04-03T05:01:50;12.03;70.93
71039;SHT30;58692;43.212;27.908;2023-04-03T05:04:16;12.09;70.88
71039;SHT30;58692;43.212;27.908;2023-04-03T05:06:41;12.02;70.88
71039;SHT30;58692;43.212;27.908;2023-04-03T05:09:07;12.25;70.36
71039;SHT30;58692;43.212;27.908;2023-04-03T05:11:32;12.25;70.94
71039;SHT30;58692;43.212;27.908;2023-04-03T05:13:58;12.22;71.17
71039;SHT30;58692;43.212;27.908;2023-04-03T05:16:23;12.20;71.13
71039;SHT30;58692;43.212;27.908;2023-04-03T05:18:50;12.03;72.55
71039;SHT30;58692;43.212;27.908;2023-04-03T05:21:16;12.22;72.54
71039;SHT30;58692;43.212;27.908;2023-04-03T05:23:43;11.99;73.98
71039;SHT30;58692;43.212;27.908;2023-04-03T05:26:09;12.46;72.65
71039;SHT30;58692;43.212;27.908;2023-04-03T05:28:35;12.85;71.63
71039;SHT30;58692;43.212;27.908;2023-04-03T05:31:00;12.79;71.71
71039;SHT30;58692;43.212;27.908;2023-04-03T05:33:26;12.46;72.67
71039;SHT30;58692;43.212;27.908;2023-04-03T05:35:52;12.44;72.72
71039;SHT30;58692;43.212;27.908;2023-04-03T05:38:18;12.68;72.12
71039;SHT30;58692;43.212;27.908;2023-04-03T05:40:44;13.02;70.67
71039;SHT30;58692;43.212;27.908;2023-04-03T05:43:09;13.14;69.92
71039;SHT30;58692;43.212;27.908;2023-04-03T05:45:35;13.65;68.73
71039;SHT30;58692;43.212;27.908;2023-04-03T05:48:01;14.03;67.08
71039;SHT30;58692;43.212;27.908;2023-04-03T05:50:27;14.48;65.80
71039;SHT30;58692;43.212;27.908;2023-04-03T05:52:56;14.91;64.35
71039;SHT30;58692;43.212;27.908;2023-04-03T05:55:23;15.32;62.70
71039;SHT30;58692;43.212;27.908;2023-04-03T05:57:48;15.64;61.82
71039;SHT30;58692;43.212;27.908;2023-04-03T06:00:15;15.90;61.31
71039;SHT30;58692;43.212;27.908;2023-04-03T06:02:42;16.56;59.72
71039;SHT30;58692;43.212;27.908;2023-04-03T06:05:08;16.66;59.44
71039;SHT30;58692;43.212;27.908;2023-04-03T06:07:35;16.61;59.77
71039;SHT30;58692;43.212;27.908;2023-04-03T06:10:00;16.61;59.53
71039;SHT30;58692;43.212;27.908;2023-04-03T06:12:26;17.44;58.82
71039;SHT30;58692;43.212;27.908;2023-04-03T06:14:54;17.80;56.43
71039;SHT30;58692;43.212;27.908;2023-04-03T06:17:19;17.95;55.93
71039;SHT30;58692;43.212;27.908;2023-04-03T06:19:45;17.95;55.63
71039;SHT30;58692;43.212;27.908;2023-04-03T06:22:11;18.46;54.20
71039;SHT30;58692;43.212;27.908;2023-04-03T06:24:37;19.02;53.29
71039;SHT30;58692;43.212;27.908;2023-04-03T06:27:03;18.92;53.00
71039;SHT30;58692;43.212;27.908;2023-04-03T06:29:29;19.39;52.24
71039;SHT30;58692;43.212;27.908;2023-04-03T06:31:55;19.00;52.62
71039;SHT30;58692;43.212;27.908;2023-04-03T06:34:20;18.53;53.85
71039;SHT30;58692;43.212;27.908;2023-04-03T06:36:46;19.30;52.35
71039;SHT30;58692;43.212;27.908;2023-04-03T06:39:15;18.39;54.31
71039;SHT30;58692;43.212;27.908;2023-04-03T06:41:41;18.53;54.64
71039;SHT30;58692;43.212;27.908;2023-04-03T06:44:07;18.33;55.55
71039;SHT30;58692;43.212;27.908;2023-04-03T06:46:37;18.63;54.69
71039;SHT30;58692;43.212;27.908;2023-04-03T06:49:02;18.06;55.73
71039;SHT30;58692;43.212;27.908;2023-04-03T06:51:29;18.25;55.69
71039;SHT30;58692;43.212;27.908;2023-04-03T06:53:58;19.21;53.19
71039;SHT30;58692;43.212;27.908;2023-04-03T06:56:24;18.99;52.79
71039;SHT30;58692;43.212;27.908;2023-04-03T06:58:50;19.65;52.00
71039;SHT30;58692;43.212;27.908;2023-04-03T07:01:18;20.15;51.01
71039;SHT30;58692;43.212;27.908;2023-04-03T07:03:45;20.61;49.94
71039;SHT30;58692;43.212;27.908;2023-04-03T07:06:12;21.22;48.28
71039;SHT30;58692;43.212;27.908;2023-04-03T07:08:38;21.35;47.73
71039;SHT30;58692;43.212;27.908;2023-04-03T07:11:05;21.08;48.38
71039;SHT30;58692;43.212;27.908;2023-04-03T07:13:30;20.98;48.43
71039;SHT30;58692;43.212;27.908;2023-04-03T07:15:56;21.03;48.41
71039;SHT30;58692;43.212;27.908;2023-04-03T07:18:22;20.79;49.12
71039;SHT30;58692;43.212;27.908;2023-04-03T07:20:48;20.51;49.50
71039;SHT30;58692;43.212;27.908;2023-04-03T07:23:14;19.82;51.11
71039;SHT30;58692;43.212;27.908;2023-04-03T07:25:44;19.81;51.52
71039;SHT30;58692;43.212;27.908;2023-04-03T07:28:10;19.74;51.57
71039;SHT30;58692;43.212;27.908;2023-04-03T07:30:43;19.47;52.32
71039;SHT30;58692;43.212;27.908;2023-04-03T07:33:08;19.79;51.97
71039;SHT30;58692;43.212;27.908;2023-04-03T07:35:34;20.47;50.84
71039;SHT30;58692;43.212;27.908;2023-04-03T07:37:59;21.42;49.06
71039;SHT30;58692;43.212;27.908;2023-04-03T07:40:25;21.49;48.25
71039;SHT30;58692;43.212;27.908;2023-04-03T07:42:50;21.14;49.16
71039;SHT30;58692;43.212;27.908;2023-04-03T07:45:16;20.40;50.25
71039;SHT30;58692;43.212;27.908;2023-04-03T07:47:42;20.13;51.09
71039;SHT30;58692;43.212;27.908;2023-04-03T07:50:08;20.16;51.19
71039;SHT30;58692;43.212;27.908;2023-04-03T07:52:33;19.90;51.86
71039;SHT30;58692;43.212;27.908;2023-04-03T07:54:59;19.47;52.69
71039;SHT30;58692;43.212;27.908;2023-04-03T07:57:24;19.45;52.84
71039;SHT30;58692;43.212;27.908;2023-04-03T07:59:50;19.28;53.01
71039;SHT30;58692;43.212;27.908;2023-04-03T08:02:15;18.13;54.96
71039;SHT30;58692;43.212;27.908;2023-04-03T08:04:41;18.51;54.52
71039;SHT30;58692;43.212;27.908;2023-04-03T08:07:07;18.60;53.94
71039;SHT30;58692;43.212;27.908;2023-04-03T08:09:32;18.28;54.57
71039;SHT30;58692;43.212;27.908;2023-04-03T08:11:58;18.79;53.58
71039;SHT30;58692;43.212;27.908;2023-04-03T08:14:24;18.05;54.93
71039;SHT30;58692;43.212;27.908;2023-04-03T08:16:52;17.53;57.09
71039;SHT30;58692;43.212;27.908;2023-04-03T08:19:18;17.47;57.03
71039;SHT30;58692;43.212;27.908;2023-04-03T08:21:44;17.20;57.83
71039;SHT30;58692;43.212;27.908;2023-04-03T08:24:10;17.09;58.20
71039;SHT30;58692;43.212;27.908;2023-04-03T08:26:37;17.77;56.51
71039;SHT30;58692;43.212;27.908;2023-04-03T08:29:03;17.69;56.56
71039;SHT30;58692;43.212;27.908;2023-04-03T08:31:29;17.00;58.56
71039;SHT30;58692;43.212;27.908;2023-04-03T08:33:56;17.46;57.61
71039;SHT30;58692;43.212;27.908;2023-04-03T08:36:25;17.57;57.56
71039;SHT30;58692;43.212;27.908;2023-04-03T08:38:52;18.00;56.72
71039;SHT30;58692;43.212;27.908;2023-04-03T08:41:36;18.00;56.57
71039;SHT30;58692;43.212;27.908;2023-04-03T08:47:17;17.71;57.42
71039;SHT30;58692;43.212;27.908;2023-04-03T08:49:43;17.84;57.94
71039;SHT30;58692;43.212;27.908;2023-04-03T08:52:17;18.11;57.08
71039;SHT30;58692;43.212;27.908;2023-04-03T08:57:16;17.90;57.81
71039;SHT30;58692;43.212;27.908;2023-04-03T08:59:42;17.59;59.30
71039;SHT30;58692;43.212;27.908;2023-04-03T09:02:23;17.41;59.93
71039;SHT30;58692;43.212;27.908;2023-04-03T09:04:50;17.34;60.37
71039;SHT30;58692;43.212;27.908;2023-04-03T09:07:30;17.47;60.11
71039;SHT30;58692;43.212;27.908;2023-04-03T09:09:59;17.17;60.92
71039;SHT30;58692;43.212;27.908;2023-04-03T09:12:34;16.62;62.38
71039;SHT30;58692;43.212;27.908;2023-04-03T09:22:55;16.47;64.41
71039;SHT30;58692;43.212;27.908;2023-04-03T09:25:23;16.44;64.76
71039;SHT30;58692;43.212;27.908;2023-04-03T09:27:50;16.29;65.74
71039;SHT30;58692;43.212;27.908;2023-04-03T09:30:20;16.44;65.72
71039;SHT30;58692;43.212;27.908;2023-04-03T09:32:49;16.48;65.69
71039;SHT30;58692;43.212;27.908;2023-04-03T09:35:33;16.45;66.24
71039;SHT30;58692;43.212;27.908;2023-04-03T09:38:01;16.41;66.68
71039;SHT30;58692;43.212;27.908;2023-04-03T09:40:43;16.29;66.96
71039;SHT30;58692;43.212;27.908;2023-04-03T09:43:24;16.07;67.44
71039;SHT30;58692;43.212;27.908;2023-04-03T09:45:51;16.05;67.92
71039;SHT30;58692;43.212;27.908;2023-04-03T09:48:20;15.79;68.56
71039;SHT30;58692;43.212;27.908;2023-04-03T09:53:29;15.49;68.62
71039;SHT30;58692;43.212;27.908;2023-04-03T09:55:55;15.13;69.92
71039;SHT30;58692;43.212;27.908;2023-04-03T09:58:33;15.09;70.59
71039;SHT30;58692;43.212;27.908;2023-04-03T10:01:03;15.02;70.58
71039;SHT30;58692;43.212;27.908;2023-04-03T10:03:36;14.85;71.08
71039;SHT30;58692;43.212;27.908;2023-04-03T10:06:23;14.77;71.39
71039;SHT30;58692;43.212;27.908;2023-04-03T10:09:20;14.81;71.30
71039;SHT30;58692;43.212;27.908;2023-04-03T10:14:25;14.54;71.58
71039;SHT30;58692;43.212;27.908;2023-04-03T10:16:59;14.67;71.08
71039;SHT30;58692;43.212;27.908;2023-04-03T10:19:48;14.58;71.06
71039;SHT30;58692;43.212;27.908;2023-04-03T10:30:41;15.11;69.11
71039;SHT30;58692;43.212;27.908;2023-04-03T10:39:37;15.73;66.93
71039;SHT30;58692;43.212;27.908;2023-04-03T10:41:52;15.84;66.30
71039;SHT30;58692;43.212;27.908;2023-04-03T10:44:36;15.87;65.58
71039;SHT30;58692;43.212;27.908;2023-04-03T10:47:17;15.69;66.05
71039;SHT30;58692;43.212;27.908;2023-04-03T10:49:48;16.04;65.43
71039;SHT30;58692;43.212;27.908;2023-04-03T10:52:24;16.47;64.08
71039;SHT30;58692;43.212;27.908;2023-04-03T10:57:33;16.47;63.47
71039;SHT30;58692;43.212;27.908;2023-04-03T11:00:05;16.96;62.62
71039;SHT30;58692;43.212;27.908;2023-04-03T11:02:37;16.32;63.59
71039;SHT30;58692;43.212;27.908;2023-04-03T11:05:06;16.37;63.74
71039;SHT30;58692;43.212;27.908;2023-04-03T11:07:46;15.70;65.11
71039;SHT30;58692;43.212;27.908;2023-04-03T11:10:23;15.13;66.87
71039;SHT30;58692;43.212;27.908;2023-04-03T11:13:01;14.74;68.35
71039;SHT30;58692;43.212;27.908;2023-04-03T11:15:29;15.02;67.73
71039;SHT30;58692;43.212;27.908;2023-04-03T11:18:01;15.15;67.66
71039;SHT30;58692;43.212;27.908;2023-04-03T11:20:30;14.91;68.20
71039;SHT30;58692;43.212;27.908;2023-04-03T11:23:05;15.08;67.78
71039;SHT30;58692;43.212;27.908;2023-04-03T11:25:35;15.49;66.73
71039;SHT30;58692;43.212;27.908;2023-04-03T11:28:04;16.13;64.75
71039;SHT30;58692;43.212;27.908;2023-04-03T11:30:39;16.22;64.36
71039;SHT30;58692;43.212;27.908;2023-04-03T11:35:52;16.37;63.03
71039;SHT30;58692;43.212;27.908;2023-04-03T11:38:24;16.89;62.16
71039;SHT30;58692;43.212;27.908;2023-04-03T11:40:53;16.71;62.47
71039;SHT30;58692;43.212;27.908;2023-04-03T11:43:21;16.61;62.83
71039;SHT30;58692;43.212;27.908;2023-04-03T11:53:43;16.47;62.97
71039;SHT30;58692;43.212;27.908;2023-04-03T12:01:57;16.28;63.00
71039;SHT30;58692;43.212;27.908;2023-04-03T12:04:26;15.62;65.65
71039;SHT30;58692;43.212;27.908;2023-04-03T12:06:59;15.42;66.35
71039;SHT30;58692;43.212;27.908;2023-04-03T12:11:53;14.92;68.31
71039;SHT30;58692;43.212;27.908;2023-04-03T12:14:23;14.72;69.09
71039;SHT30;58692;43.212;27.908;2023-04-03T12:16:52;14.77;68.97
71039;SHT30;58692;43.212;27.908;2023-04-03T12:19:31;14.47;69.81
71039;SHT30;58692;43.212;27.908;2023-04-03T12:26:51;14.47;70.57
71039;SHT30;58692;43.212;27.908;2023-04-03T12:29:35;14.18;71.98
71039;SHT30;58692;43.212;27.908;2023-04-03T12:32:26;13.73;73.94
71039;SHT30;58692;43.212;27.908;2023-04-03T12:35:05;13.69;74.71
71039;SHT30;58692;43.212;27.908;2023-04-03T12:48:30;14.38;71.52
71039;SHT30;58692;43.212;27.908;2023-04-03T12:50:57;14.26;71.11
71039;SHT30;58692;43.212;27.908;2023-04-03T12:53:26;14.44;70.95
71039;SHT30;58692;43.212;27.908;2023-04-03T12:55:55;14.57;69.89
71039;SHT30;58692;43.212;27.908;2023-04-03T12:58:26;14.56;69.55
71039;SHT30;58692;43.212;27.908;2023-04-03T13:03:34;14.38;70.52
71039;SHT30;58692;43.212;27.908;2023-04-03T13:06:02;14.14;71.57
71039;SHT30;58692;43.212;27.908;2023-04-03T13:08:29;13.72;73.26
71039;SHT30;58692;43.212;27.908;2023-04-03T13:13:21;13.29;75.11
71039;SHT30;58692;43.212;27.908;2023-04-03T13:15:48;13.36;75.03
71039;SHT30;58692;43.212;27.908;2023-04-03T13:18:32;13.24;75.32
71039;SHT30;58692;43.212;27.908;2023-04-03T13:21:01;13.08;75.42
71039;SHT30;58692;43.212;27.908;2023-04-03T13:23:29;12.93;76.08
71039;SHT30;58692;43.212;27.908;2023-04-03T13:25:56;13.00;76.12
71039;SHT30;58692;43.212;27.908;2023-04-03T13:28:26;12.98;76.06
71039;SHT30;58692;43.212;27.908;2023-04-03T13:33:56;13.18;75.19
71039;SHT30;58692;43.212;27.908;2023-04-03T13:36:27;13.29;74.48
71039;SHT30;58692;43.212;27.908;2023-04-03T13:39:00;13.32;74.45
71039;SHT30;58692;43.212;27.908;2023-04-03T13:41:33;13.25;74.68
71039;SHT30;58692;43.212;27.908;2023-04-03T13:46:41;13.34;74.27
71039;SHT30;58692;43.212;27.908;2023-04-03T13:49:35;13.08;74.67
71039;SHT30;58692;43.212;27.908;2023-04-03T13:52:17;13.08;75.27
71039;SHT30;58692;43.212;27.908;2023-04-03T13:54:51;13.26;74.87
71039;SHT30;58692;43.212;27.908;2023-04-03T13:57:17;13.14;75.44
71039;SHT30;58692;43.212;27.908;2023-04-03T13:59:43;13.16;75.12
71039;SHT30;58692;43.212;27.908;2023-04-03T14:07:16;12.61;76.91
71039;SHT30;58692;43.212;27.908;2023-04-03T14:09:42;12.64;76.83
71039;SHT30;58692;43.212;27.908;2023-04-03T14:12:15;12.64;76.59
71039;SHT30;58692;43.212;27.908;2023-04-03T14:14:41;12.68;76.78
71039;SHT30;58692;43.212;27.908;2023-04-03T14:17:16;12.67;76.80
71039;SHT30;58692;43.212;27.908;2023-04-03T14:19:42;12.53;77.30
71039;SHT30;58692;43.212;27.908;2023-04-03T14:24:43;12.47;77.49
71039;SHT30;58692;43.212;27.908;2023-04-03T14:27:18;12.61;77.19
71039;SHT30;58692;43.212;27.908;2023-04-03T14:29:44;12.81;76.51
71039;SHT30;58692;43.212;27.908;2023-04-03T14:32:13;12.79;76.08
71039;SHT30;58692;43.212;27.908;2023-04-03T14:34:41;12.67;76.31
71039;SHT30;58692;43.212;27.908;2023-04-03T14:37:12;12.71;76.77
71039;SHT30;58692;43.212;27.908;2023-04-03T14:39:40;12.77;76.45
71039;SHT30;58692;43.212;27.908;2023-04-03T14:42:06;12.80;76.31
71039;SHT30;58692;43.212;27.908;2023-04-03T14:44:31;12.79;76.06
71039;SHT30;58692;43.212;27.908;2023-04-03T14:46:57;12.67;76.43
71039;SHT30;58692;43.212;27.908;2023-04-03T14:49:27;12.56;77.13
71039;SHT30;58692;43.212;27.908;2023-04-03T14:51:54;12.59;77.58
71039;SHT30;58692;43.212;27.908;2023-04-03T14:54:23;12.59;77.57
71039;SHT30;58692;43.212;27.908;2023-04-03T14:56:53;12.50;77.75
71039;SHT30;58692;43.212;27.908;2023-04-03T14:59:21;12.44;78.45
71039;SHT30;58692;43.212;27.908;2023-04-03T15:01:47;12.63;77.70
71039;SHT30;58692;43.212;27.908;2023-04-03T15:04:14;12.53;77.49
71039;SHT30;58692;43.212;27.908;2023-04-03T15:06:40;12.59;77.36
71039;SHT30;58692;43.212;27.908;2023-04-03T15:09:23;12.59;76.67
71039;SHT30;58692;43.212;27.908;2023-04-03T15:11:50;12.80;76.82
71039;SHT30;58692;43.212;27.908;2023-04-03T15:14:16;12.94;76.15
71039;SHT30;58692;43.212;27.908;2023-04-03T15:16:42;12.98;74.82
71039;SHT30;58692;43.212;27.908;2023-04-03T15:19:07;13.02;75.14
71039;SHT30;58692;43.212;27.908;2023-04-03T15:21:33;13.04;74.58
71039;SHT30;58692;43.212;27.908;2023-04-03T15:23:58;13.10;75.78
71039;SHT30;58692;43.212;27.908;2023-04-03T15:26:24;13.12;75.13
71039;SHT30;58692;43.212;27.908;2023-04-03T15:28:50;12.95;75.82
71039;SHT30;58692;43.212;27.908;2023-04-03T15:31:16;12.80;75.68
71039;SHT30;58692;43.212;27.908;2023-04-03T15:33:41;13.00;77.89
71039;SHT30;58692;43.212;27.908;2023-04-03T15:36:07;13.12;76.80
71039;SHT30;58692;43.212;27.908;2023-04-03T15:38:33;13.05;75.13
71039;SHT30;58692;43.212;27.908;2023-04-03T15:40:59;13.10;75.06
71039;SHT30;58692;43.212;27.908;2023-04-03T15:43:25;13.16;75.07
71039;SHT30;58692;43.212;27.908;2023-04-03T15:45:50;13.05;75.39
71039;SHT30;58692;43.212;27.908;2023-04-03T15:48:16;13.01;75.32
71039;SHT30;58692;43.212;27.908;2023-04-03T15:50:42;13.11;76.08
71039;SHT30;58692;43.212;27.908;2023-04-03T15:53:08;13.04;74.92
71039;SHT30;58692;43.212;27.908;2023-04-03T15:55:36;12.95;75.43
71039;SHT30;58692;43.212;27.908;2023-04-03T15:58:02;13.02;74.68
71039;SHT30;58692;43.212;27.908;2023-04-03T16:00:28;12.98;75.27
71039;SHT30;58692;43.212;27.908;2023-04-03T16:02:59;12.87;76.21
71039;SHT30;58692;43.212;27.908;2023-04-03T16:05:26;12.93;76.38
71039;SHT30;58692;43.212;27.908;2023-04-03T16:07:52;12.84;76.88
71039;SHT30;58692;43.212;27.908;2023-04-03T16:10:19;12.97;76.45
71039;SHT30;58692;43.212;27.908;2023-04-03T16:12:45;12.90;76.14
71039;SHT30;58692;43.212;27.908;2023-04-03T16:15:10;12.90;76.91
71039;SHT30;58692;43.212;27.908;2023-04-03T16:17:39;12.84;75.78
71039;SHT30;58692;43.212;27.908;2023-04-03T16:20:07;12.74;75.61
71039;SHT30;58692;43.212;27.908;2023-04-03T16:22:33;12.76;76.30
71039;SHT30;58692;43.212;27.908;2023-04-03T16:24:59;12.81;76.74
71039;SHT30;58692;43.212;27.908;2023-04-03T16:27:24;12.88;76.37
71039;SHT30;58692;43.212;27.908;2023-04-03T16:29:54;13.00;76.69
71039;SHT30;58692;43.212;27.908;2023-04-03T16:32:20;13.04;76.25
71039;SHT30;58692;43.212;27.908;2023-04-03T16:34:46;12.93;77.65
71039;SHT30;58692;43.212;27.908;2023-04-03T16:37:11;13.04;76.28
71039;SHT30;58692;43.212;27.908;2023-04-03T16:39:37;12.94;76.74
71039;SHT30;58692;43.212;27.908;2023-04-03T16:42:02;12.84;77.00
71039;SHT30;58692;43.212;27.908;2023-04-03T16:44:28;12.83;77.16
71039;SHT30;58692;43.212;27.908;2023-04-03T16:46:53;12.81;77.47
71039;SHT30;58692;43.212;27.908;2023-04-03T16:49:19;12.79;77.40
71039;SHT30;58692;43.212;27.908;2023-04-03T16:51:44;12.70;77.89
71039;SHT30;58692;43.212;27.908;2023-04-03T16:54:10;12.61;77.96
71039;SHT30;58692;43.212;27.908;2023-04-03T16:56:38;12.65;77.83